sensor_id;sensor_type;location;lat;lon;timestamp;P1;durP1;ratioP1;P2;durP2;ratioP2
66893;SDS011;53801;55.786;49.142;2023-04-24T00:57:29;7.00;;;2.17;;
66893;SDS011;53801;55.786;49.142;2023-04-24T01:05:16;8.30;;;2.80;;
66893;SDS011;53801;55.786;49.142;2023-04-24T01:07:43;4.80;;;1.70;;
66893;SDS011;53801;55.786;49.142;2023-04-24T01:12:38;5.68;;;2.28;;
66893;SDS011;53801;55.786;49.142;2023-04-24T01:15:06;7.60;;;2.13;;
66893;SDS011;53801;55.786;49.142;2023-04-24T01:17:32;5.07;;;1.98;;
66893;SDS011;53801;55.786;49.142;2023-04-24T01:28:27;6.72;;;2.20;;
66893;SDS011;53801;55.786;49.142;2023-04-24T01:33:32;5.75;;;2.33;;
66893;SDS011;53801;55.786;49.142;2023-04-24T01:35:58;4.70;;;1.93;;
66893;SDS011;53801;55.786;49.142;2023-04-24T01:38:35;9.55;;;2.13;;
66893;SDS011;53801;55.786;49.142;2023-04-24T01:41:01;4.53;;;1.60;;
66893;SDS011;53801;55.786;49.142;2023-04-24T01:43:26;6.50;;;2.03;;
66893;SDS011;53801;55.786;49.142;2023-04-24T01:45:52;4.70;;;1.93;;
66893;SDS011;53801;55.786;49.142;2023-04-24T01:48:17;4.40;;;1.70;;
66893;SDS011;53801;55.786;49.142;2023-04-24T01:50:43;5.70;;;1.92;;
66893;SDS011;53801;55.786;49.142;2023-04-24T01:58:46;3.08;;;1.30;;
66893;SDS011;53801;55.786;49.142;2023-04-24T02:04:11;4.35;;;1.50;;
66893;SDS011;53801;55.786;49.142;2023-04-24T02:06:36;3.87;;;1.30;;
66893;SDS011;53801;55.786;49.142;2023-04-24T02:12:04;4.20;;;1.27;;
66893;SDS011;53801;55.786;49.142;2023-04-24T02:14:30;5.25;;;1.60;;
66893;SDS011;53801;55.786;49.142;2023-04-24T02:16:55;3.57;;;1.70;;
66893;SDS011;53801;55.786;49.142;2023-04-24T02:19:21;3.23;;;1.20;;
66893;SDS011;53801;55.786;49.142;2023-04-24T02:21:46;3.58;;;1.30;;
66893;SDS011;53801;55.786;49.142;2023-04-24T02:24:12;2.87;;;1.20;;
66893;SDS011;53801;55.786;49.142;2023-04-24T02:29:49;4.28;;;1.30;;
66893;SDS011;53801;55.786;49.142;2023-04-24T02:32:15;3.50;;;1.20;;
66893;SDS011;53801;55.786;49.142;2023-04-24T02:34:41;7.25;;;1.50;;
66893;SDS011;53801;55.786;49.142;2023-04-24T02:37:06;7.03;;;1.40;;
66893;SDS011;53801;55.786;49.142;2023-04-24T02:39:32;5.07;;;1.30;;
66893;SDS011;53801;55.786;49.142;2023-04-24T02:44:55;3.30;;;1.10;;
66893;SDS011;53801;55.786;49.142;2023-04-24T02:47:22;3.85;;;1.10;;
66893;SDS011;53801;55.786;49.142;2023-04-24T02:49:47;5.38;;;1.30;;
66893;SDS011;53801;55.786;49.142;2023-04-24T02:52:13;2.97;;;1.03;;
66893;SDS011;53801;55.786;49.142;2023-04-24T02:54:39;4.95;;;1.25;;
66893;SDS011;53801;55.786;49.142;2023-04-24T02:59:46;5.43;;;1.33;;
66893;SDS011;53801;55.786;49.142;2023-04-24T03:02:11;4.63;;;1.20;;
66893;SDS011;53801;55.786;49.142;2023-04-24T03:04:37;5.67;;;1.33;;
66893;SDS011;53801;55.786;49.142;2023-04-24T03:07:02;4.43;;;1.50;;
66893;SDS011;53801;55.786;49.142;2023-04-24T03:09:27;5.45;;;1.50;;
66893;SDS011;53801;55.786;49.142;2023-04-24T03:11:53;6.30;;;1.67;;
66893;SDS011;53801;55.786;49.142;2023-04-24T03:14:18;5.50;;;1.83;;
66893;SDS011;53801;55.786;49.142;2023-04-24T03:16:44;6.73;;;1.50;;
66893;SDS011;53801;55.786;49.142;2023-04-24T03:19:09;5.30;;;1.65;;
66893;SDS011;53801;55.786;49.142;2023-04-24T03:21:35;6.53;;;1.83;;
66893;SDS011;53801;55.786;49.142;2023-04-24T03:24:01;5.53;;;1.70;;
66893;SDS011;53801;55.786;49.142;2023-04-24T03:29:18;7.40;;;1.95;;
66893;SDS011;53801;55.786;49.142;2023-04-24T03:43:00;4.88;;;1.92;;
66893;SDS011;53801;55.786;49.142;2023-04-24T03:45:25;10.40;;;2.53;;
66893;SDS011;53801;55.786;49.142;2023-04-24T03:47:51;9.30;;;2.77;;
66893;SDS011;53801;55.786;49.142;2023-04-24T04:09:58;7.53;;;3.03;;
66893;SDS011;53801;55.786;49.142;2023-04-24T04:24:53;10.70;;;3.83;;
66893;SDS011;53801;55.786;49.142;2023-04-24T04:27:18;14.30;;;3.75;;
66893;SDS011;53801;55.786;49.142;2023-04-24T04:32:46;13.07;;;4.18;;
66893;SDS011;53801;55.786;49.142;2023-04-24T04:43:52;16.02;;;4.55;;
66893;SDS011;53801;55.786;49.142;2023-04-24T04:46:18;10.65;;;4.45;;
66893;SDS011;53801;55.786;49.142;2023-04-24T04:48:43;13.07;;;4.93;;
66893;SDS011;53801;55.786;49.142;2023-04-24T04:51:20;14.75;;;5.07;;
66893;SDS011;53801;55.786;49.142;2023-04-24T05:08:43;22.20;;;6.63;;
66893;SDS011;53801;55.786;49.142;2023-04-24T05:20:25;13.95;;;7.05;;
66893;SDS011;53801;55.786;49.142;2023-04-24T05:28:56;20.55;;;7.43;;
66893;SDS011;53801;55.786;49.142;2023-04-24T05:31:21;15.27;;;6.80;;
66893;SDS011;53801;55.786;49.142;2023-04-24T05:33:47;11.07;;;6.23;;
66893;SDS011;53801;55.786;49.142;2023-04-24T05:57:03;23.58;;;8.18;;
66893;SDS011;53801;55.786;49.142;2023-04-24T05:59:36;18.52;;;7.30;;
66893;SDS011;53801;55.786;49.142;2023-04-24T06:11:13;11.18;;;6.75;;
66893;SDS011;53801;55.786;49.142;2023-04-24T06:18:52;15.20;;;6.75;;
66893;SDS011;53801;55.786;49.142;2023-04-24T06:24:20;11.65;;;6.20;;
66893;SDS011;53801;55.786;49.142;2023-04-24T06:26:46;14.98;;;7.20;;
66893;SDS011;53801;55.786;49.142;2023-04-24T06:29:16;14.10;;;7.47;;
66893;SDS011;53801;55.786;49.142;2023-04-24T06:31:44;11.02;;;6.05;;
66893;SDS011;53801;55.786;49.142;2023-04-24T06:34:12;14.43;;;6.07;;
66893;SDS011;53801;55.786;49.142;2023-04-24T06:36:37;11.20;;;5.88;;
66893;SDS011;53801;55.786;49.142;2023-04-24T06:41:59;10.70;;;5.97;;
66893;SDS011;53801;55.786;49.142;2023-04-24T06:44:25;12.43;;;5.90;;
66893;SDS011;53801;55.786;49.142;2023-04-24T06:52:29;14.88;;;6.35;;
66893;SDS011;53801;55.786;49.142;2023-04-24T06:55:04;9.88;;;6.15;;
66893;SDS011;53801;55.786;49.142;2023-04-24T06:57:31;14.38;;;6.35;;
66893;SDS011;53801;55.786;49.142;2023-04-24T06:59:57;8.77;;;6.37;;
66893;SDS011;53801;55.786;49.142;2023-04-24T07:02:23;14.15;;;6.50;;
66893;SDS011;53801;55.786;49.142;2023-04-24T07:10:12;8.68;;;5.93;;
66893;SDS011;53801;55.786;49.142;2023-04-24T07:12:38;11.83;;;7.57;;
66893;SDS011;53801;55.786;49.142;2023-04-24T07:15:04;8.48;;;6.43;;
66893;SDS011;53801;55.786;49.142;2023-04-24T07:23:10;8.68;;;6.07;;
66893;SDS011;53801;55.786;49.142;2023-04-24T07:25:35;13.20;;;7.60;;
66893;SDS011;53801;55.786;49.142;2023-04-24T07:30:50;9.82;;;6.65;;
66893;SDS011;53801;55.786;49.142;2023-04-24T07:33:19;8.57;;;6.32;;
66893;SDS011;53801;55.786;49.142;2023-04-24T07:35:44;7.05;;;6.28;;
66893;SDS011;53801;55.786;49.142;2023-04-24T07:38:10;11.20;;;7.17;;
66893;SDS011;53801;55.786;49.142;2023-04-24T07:43:48;7.32;;;6.05;;
66893;SDS011;53801;55.786;49.142;2023-04-24T07:46:13;6.50;;;4.82;;
66893;SDS011;53801;55.786;49.142;2023-04-24T07:48:43;14.87;;;6.40;;
66893;SDS011;53801;55.786;49.142;2023-04-24T07:51:08;12.05;;;6.13;;
66893;SDS011;53801;55.786;49.142;2023-04-24T07:53:36;13.63;;;6.53;;
66893;SDS011;53801;55.786;49.142;2023-04-24T08:07:14;8.32;;;6.30;;
66893;SDS011;53801;55.786;49.142;2023-04-24T08:09:40;10.00;;;6.27;;
66893;SDS011;53801;55.786;49.142;2023-04-24T08:12:05;11.38;;;5.90;;
66893;SDS011;53801;55.786;49.142;2023-04-24T08:14:30;7.10;;;5.93;;
66893;SDS011;53801;55.786;49.142;2023-04-24T08:16:56;9.60;;;6.20;;
66893;SDS011;53801;55.786;49.142;2023-04-24T08:19:21;11.02;;;5.80;;
66893;SDS011;53801;55.786;49.142;2023-04-24T08:21:47;6.72;;;5.78;;
66893;SDS011;53801;55.786;49.142;2023-04-24T08:24:12;8.23;;;5.53;;
66893;SDS011;53801;55.786;49.142;2023-04-24T08:26:38;13.00;;;7.07;;
66893;SDS011;53801;55.786;49.142;2023-04-24T08:31:52;5.93;;;5.13;;
66893;SDS011;53801;55.786;49.142;2023-04-24T08:34:22;7.07;;;5.97;;
66893;SDS011;53801;55.786;49.142;2023-04-24T08:36:47;6.18;;;5.60;;
66893;SDS011;53801;55.786;49.142;2023-04-24T08:39:13;7.72;;;5.82;;
66893;SDS011;53801;55.786;49.142;2023-04-24T08:41:40;6.80;;;4.83;;
66893;SDS011;53801;55.786;49.142;2023-04-24T08:44:07;7.75;;;5.15;;
66893;SDS011;53801;55.786;49.142;2023-04-24T08:46:34;11.85;;;6.55;;
66893;SDS011;53801;55.786;49.142;2023-04-24T08:48:59;7.40;;;5.10;;
66893;SDS011;53801;55.786;49.142;2023-04-24T08:51:26;10.88;;;4.90;;
66893;SDS011;53801;55.786;49.142;2023-04-24T08:53:51;7.53;;;5.90;;
66893;SDS011;53801;55.786;49.142;2023-04-24T08:56:18;8.48;;;5.45;;
66893;SDS011;53801;55.786;49.142;2023-04-24T08:58:44;6.30;;;5.63;;
66893;SDS011;53801;55.786;49.142;2023-04-24T09:01:10;5.72;;;4.70;;
66893;SDS011;53801;55.786;49.142;2023-04-24T09:03:36;11.02;;;5.18;;
66893;SDS011;53801;55.786;49.142;2023-04-24T09:06:02;8.90;;;4.97;;
66893;SDS011;53801;55.786;49.142;2023-04-24T09:08:27;6.80;;;4.85;;
66893;SDS011;53801;55.786;49.142;2023-04-24T09:10:53;5.60;;;4.77;;
66893;SDS011;53801;55.786;49.142;2023-04-24T09:15:50;8.10;;;4.95;;
66893;SDS011;53801;55.786;49.142;2023-04-24T09:18:16;8.98;;;4.68;;
66893;SDS011;53801;55.786;49.142;2023-04-24T09:23:36;5.88;;;4.88;;
66893;SDS011;53801;55.786;49.142;2023-04-24T09:26:02;5.90;;;4.55;;
66893;SDS011;53801;55.786;49.142;2023-04-24T09:28:31;8.23;;;5.35;;
66893;SDS011;53801;55.786;49.142;2023-04-24T09:31:13;9.80;;;4.60;;
66893;SDS011;53801;55.786;49.142;2023-04-24T09:33:39;10.20;;;4.40;;
66893;SDS011;53801;55.786;49.142;2023-04-24T09:36:05;6.80;;;5.40;;
66893;SDS011;53801;55.786;49.142;2023-04-24T09:38:35;8.20;;;4.93;;
66893;SDS011;53801;55.786;49.142;2023-04-24T09:41:01;8.65;;;5.22;;
66893;SDS011;53801;55.786;49.142;2023-04-24T09:43:28;10.52;;;5.72;;
66893;SDS011;53801;55.786;49.142;2023-04-24T09:45:57;7.50;;;5.37;;
66893;SDS011;53801;55.786;49.142;2023-04-24T09:48:30;9.35;;;6.25;;
66893;SDS011;53801;55.786;49.142;2023-04-24T09:50:57;6.50;;;5.40;;
66893;SDS011;53801;55.786;49.142;2023-04-24T09:53:25;6.40;;;5.57;;
66893;SDS011;53801;55.786;49.142;2023-04-24T09:55:51;5.13;;;4.63;;
66893;SDS011;53801;55.786;49.142;2023-04-24T10:04:20;5.50;;;5.03;;
66893;SDS011;53801;55.786;49.142;2023-04-24T10:06:46;7.83;;;5.27;;
66893;SDS011;53801;55.786;49.142;2023-04-24T10:09:12;6.38;;;5.75;;
66893;SDS011;53801;55.786;49.142;2023-04-24T10:11:41;6.75;;;5.30;;
66893;SDS011;53801;55.786;49.142;2023-04-24T10:16:39;6.57;;;5.50;;
66893;SDS011;53801;55.786;49.142;2023-04-24T10:19:09;8.07;;;4.33;;
66893;SDS011;53801;55.786;49.142;2023-04-24T10:21:35;8.90;;;4.38;;
66893;SDS011;53801;55.786;49.142;2023-04-24T10:24:02;6.22;;;4.72;;
66893;SDS011;53801;55.786;49.142;2023-04-24T10:26:30;6.03;;;4.07;;
66893;SDS011;53801;55.786;49.142;2023-04-24T10:28:56;8.00;;;4.30;;
66893;SDS011;53801;55.786;49.142;2023-04-24T10:31:22;5.90;;;3.90;;
66893;SDS011;53801;55.786;49.142;2023-04-24T10:38:52;4.72;;;3.08;;
66893;SDS011;53801;55.786;49.142;2023-04-24T10:44:13;4.40;;;1.88;;
66893;SDS011;53801;55.786;49.142;2023-04-24T10:46:40;3.33;;;1.87;;
66893;SDS011;53801;55.786;49.142;2023-04-24T10:55:50;5.57;;;2.00;;
66893;SDS011;53801;55.786;49.142;2023-04-24T11:01:06;5.83;;;2.23;;
66893;SDS011;53801;55.786;49.142;2023-04-24T11:03:32;4.88;;;2.47;;
66893;SDS011;53801;55.786;49.142;2023-04-24T11:08:26;5.73;;;1.80;;
66893;SDS011;53801;55.786;49.142;2023-04-24T11:10:56;7.55;;;1.55;;
66893;SDS011;53801;55.786;49.142;2023-04-24T11:13:23;3.33;;;2.03;;
66893;SDS011;53801;55.786;49.142;2023-04-24T11:18:39;4.53;;;1.92;;
66893;SDS011;53801;55.786;49.142;2023-04-24T11:21:15;3.70;;;1.50;;
66893;SDS011;53801;55.786;49.142;2023-04-24T11:23:41;6.30;;;2.17;;
66893;SDS011;53801;55.786;49.142;2023-04-24T11:26:14;5.97;;;2.10;;
66893;SDS011;53801;55.786;49.142;2023-04-24T11:32:05;5.43;;;1.80;;
66893;SDS011;53801;55.786;49.142;2023-04-24T11:34:39;6.80;;;1.77;;
66893;SDS011;53801;55.786;49.142;2023-04-24T11:37:04;5.87;;;1.67;;
66893;SDS011;53801;55.786;49.142;2023-04-24T11:39:35;9.60;;;1.75;;
66893;SDS011;53801;55.786;49.142;2023-04-24T11:42:02;3.38;;;1.70;;
66893;SDS011;53801;55.786;49.142;2023-04-24T11:44:27;7.22;;;1.73;;
66893;SDS011;53801;55.786;49.142;2023-04-24T11:46:55;5.20;;;1.73;;
66893;SDS011;53801;55.786;49.142;2023-04-24T11:49:23;4.03;;;1.88;;
66893;SDS011;53801;55.786;49.142;2023-04-24T11:51:49;7.37;;;2.07;;
66893;SDS011;53801;55.786;49.142;2023-04-24T11:54:15;3.58;;;1.60;;
66893;SDS011;53801;55.786;49.142;2023-04-24T11:57:27;6.40;;;1.80;;
66893;SDS011;53801;55.786;49.142;2023-04-24T11:59:52;5.18;;;1.70;;
66893;SDS011;53801;55.786;49.142;2023-04-24T12:02:25;10.47;;;1.80;;
66893;SDS011;53801;55.786;49.142;2023-04-24T12:07:42;8.13;;;1.58;;
66893;SDS011;53801;55.786;49.142;2023-04-24T12:10:13;5.22;;;2.00;;
66893;SDS011;53801;55.786;49.142;2023-04-24T12:12:40;4.53;;;1.70;;
66893;SDS011;53801;55.786;49.142;2023-04-24T12:15:08;6.30;;;1.80;;
66893;SDS011;53801;55.786;49.142;2023-04-24T12:17:36;6.53;;;1.90;;
66893;SDS011;53801;55.786;49.142;2023-04-24T12:20:27;3.55;;;1.40;;
66893;SDS011;53801;55.786;49.142;2023-04-24T12:22:54;11.32;;;3.70;;
66893;SDS011;53801;55.786;49.142;2023-04-24T12:25:20;8.75;;;2.15;;
66893;SDS011;53801;55.786;49.142;2023-04-24T12:27:46;4.65;;;1.98;;
66893;SDS011;53801;55.786;49.142;2023-04-24T12:30:15;13.13;;;2.30;;
66893;SDS011;53801;55.786;49.142;2023-04-24T12:35:30;5.93;;;1.95;;
66893;SDS011;53801;55.786;49.142;2023-04-24T12:38:06;9.05;;;2.42;;
66893;SDS011;53801;55.786;49.142;2023-04-24T12:40:33;14.80;;;3.25;;
66893;SDS011;53801;55.786;49.142;2023-04-24T12:42:58;8.83;;;1.90;;
66893;SDS011;53801;55.786;49.142;2023-04-24T12:56:40;5.70;;;1.70;;
66893;SDS011;53801;55.786;49.142;2023-04-24T13:07:34;6.32;;;1.52;;
66893;SDS011;53801;55.786;49.142;2023-04-24T13:10:00;8.50;;;2.25;;
66893;SDS011;53801;55.786;49.142;2023-04-24T13:12:25;9.47;;;2.03;;
66893;SDS011;53801;55.786;49.142;2023-04-24T13:14:51;6.68;;;1.95;;
66893;SDS011;53801;55.786;49.142;2023-04-24T13:17:17;7.57;;;2.00;;
66893;SDS011;53801;55.786;49.142;2023-04-24T13:19:53;13.20;;;2.40;;
66893;SDS011;53801;55.786;49.142;2023-04-24T13:22:20;8.40;;;2.35;;
66893;SDS011;53801;55.786;49.142;2023-04-24T13:24:45;9.27;;;2.03;;
66893;SDS011;53801;55.786;49.142;2023-04-24T13:27:14;8.45;;;2.17;;
66893;SDS011;53801;55.786;49.142;2023-04-24T13:29:39;14.50;;;1.67;;
66893;SDS011;53801;55.786;49.142;2023-04-24T13:32:05;7.43;;;1.80;;
66893;SDS011;53801;55.786;49.142;2023-04-24T13:34:31;8.50;;;2.20;;
66893;SDS011;53801;55.786;49.142;2023-04-24T13:36:56;10.40;;;2.15;;
66893;SDS011;53801;55.786;49.142;2023-04-24T13:39:23;4.27;;;1.70;;
66893;SDS011;53801;55.786;49.142;2023-04-24T14:01:15;4.68;;;2.10;;
66893;SDS011;53801;55.786;49.142;2023-04-24T14:12:52;7.30;;;2.78;;
66893;SDS011;53801;55.786;49.142;2023-04-24T14:15:28;11.48;;;2.80;;
66893;SDS011;53801;55.786;49.142;2023-04-24T14:20:42;10.52;;;2.40;;
66893;SDS011;53801;55.786;49.142;2023-04-24T14:23:08;6.37;;;2.60;;
66893;SDS011;53801;55.786;49.142;2023-04-24T14:25:33;7.50;;;2.42;;
66893;SDS011;53801;55.786;49.142;2023-04-24T14:27:59;6.22;;;2.00;;
66893;SDS011;53801;55.786;49.142;2023-04-24T14:33:52;9.48;;;2.22;;
66893;SDS011;53801;55.786;49.142;2023-04-24T14:36:17;7.07;;;2.30;;
66893;SDS011;53801;55.786;49.142;2023-04-24T14:41:32;9.80;;;2.97;;
66893;SDS011;53801;55.786;49.142;2023-04-24T14:44:01;7.88;;;2.90;;
66893;SDS011;53801;55.786;49.142;2023-04-24T14:46:34;6.53;;;3.00;;
66893;SDS011;53801;55.786;49.142;2023-04-24T14:48:59;7.57;;;2.38;;
66893;SDS011;53801;55.786;49.142;2023-04-24T14:51:25;11.50;;;2.60;;
66893;SDS011;53801;55.786;49.142;2023-04-24T14:53:51;6.67;;;2.50;;
66893;SDS011;53801;55.786;49.142;2023-04-24T14:56:16;9.60;;;2.30;;
66893;SDS011;53801;55.786;49.142;2023-04-24T14:58:51;9.35;;;2.47;;
66893;SDS011;53801;55.786;49.142;2023-04-24T15:01:16;9.30;;;2.03;;
66893;SDS011;53801;55.786;49.142;2023-04-24T15:03:43;5.85;;;2.30;;
66893;SDS011;53801;55.786;49.142;2023-04-24T15:06:08;9.07;;;2.20;;
66893;SDS011;53801;55.786;49.142;2023-04-24T15:11:17;6.75;;;2.03;;
66893;SDS011;53801;55.786;49.142;2023-04-24T15:13:42;8.15;;;2.17;;
66893;SDS011;53801;55.786;49.142;2023-04-24T15:16:10;5.45;;;2.28;;
66893;SDS011;53801;55.786;49.142;2023-04-24T15:21:24;6.80;;;2.78;;
66893;SDS011;53801;55.786;49.142;2023-04-24T15:23:49;9.02;;;2.45;;
66893;SDS011;53801;55.786;49.142;2023-04-24T15:26:24;9.05;;;2.25;;
66893;SDS011;53801;55.786;49.142;2023-04-24T15:28:50;11.45;;;2.72;;
66893;SDS011;53801;55.786;49.142;2023-04-24T15:34:06;7.13;;;2.40;;
66893;SDS011;53801;55.786;49.142;2023-04-24T15:36:32;13.32;;;2.50;;
66893;SDS011;53801;55.786;49.142;2023-04-24T15:38:57;9.80;;;2.37;;
66893;SDS011;53801;55.786;49.142;2023-04-24T15:41:23;7.60;;;2.47;;
66893;SDS011;53801;55.786;49.142;2023-04-24T15:43:48;5.47;;;1.92;;
66893;SDS011;53801;55.786;49.142;2023-04-24T15:46:14;4.80;;;1.97;;
66893;SDS011;53801;55.786;49.142;2023-04-24T15:48:41;12.10;;;3.17;;
66893;SDS011;53801;55.786;49.142;2023-04-24T15:57:13;11.45;;;2.85;;
66893;SDS011;53801;55.786;49.142;2023-04-24T16:02:19;10.23;;;2.53;;
66893;SDS011;53801;55.786;49.142;2023-04-24T16:10:35;5.97;;;2.63;;
66893;SDS011;53801;55.786;49.142;2023-04-24T16:21:56;8.23;;;2.70;;
66893;SDS011;53801;55.786;49.142;2023-04-24T16:24:22;6.57;;;2.22;;
66893;SDS011;53801;55.786;49.142;2023-04-24T16:26:48;7.43;;;2.10;;
66893;SDS011;53801;55.786;49.142;2023-04-24T16:31:42;9.93;;;2.58;;
66893;SDS011;53801;55.786;49.142;2023-04-24T16:36:56;9.33;;;3.17;;
66893;SDS011;53801;55.786;49.142;2023-04-24T16:39:21;8.63;;;2.78;;
66893;SDS011;53801;55.786;49.142;2023-04-24T16:41:47;8.80;;;3.10;;
66893;SDS011;53801;55.786;49.142;2023-04-24T16:55:32;9.60;;;2.58;;
66893;SDS011;53801;55.786;49.142;2023-04-24T17:00:33;6.90;;;2.60;;
66893;SDS011;53801;55.786;49.142;2023-04-24T17:05:34;8.25;;;2.63;;
66893;SDS011;53801;55.786;49.142;2023-04-24T17:08:00;14.40;;;3.00;;
66893;SDS011;53801;55.786;49.142;2023-04-24T17:13:24;12.07;;;3.00;;
66893;SDS011;53801;55.786;49.142;2023-04-24T17:15:49;7.57;;;2.90;;
66893;SDS011;53801;55.786;49.142;2023-04-24T17:21:03;10.80;;;3.00;;
66893;SDS011;53801;55.786;49.142;2023-04-24T17:23:28;10.18;;;3.22;;
66893;SDS011;53801;55.786;49.142;2023-04-24T17:31:19;9.07;;;2.43;;
66893;SDS011;53801;55.786;49.142;2023-04-24T18:22:48;14.23;;;4.82;;
66893;SDS011;53801;55.786;49.142;2023-04-24T19:03:45;6.88;;;3.00;;
66893;SDS011;53801;55.786;49.142;2023-04-24T19:06:10;10.63;;;3.27;;
66893;SDS011;53801;55.786;49.142;2023-04-24T19:08:36;7.18;;;2.95;;
66893;SDS011;53801;55.786;49.142;2023-04-24T19:11:03;7.20;;;3.00;;
66893;SDS011;53801;55.786;49.142;2023-04-24T19:13:31;7.47;;;2.90;;
66893;SDS011;53801;55.786;49.142;2023-04-24T19:18:30;8.77;;;2.47;;
66893;SDS011;53801;55.786;49.142;2023-04-24T19:20:55;12.25;;;2.70;;
66893;SDS011;53801;55.786;49.142;2023-04-24T19:23:23;6.82;;;2.22;;
66893;SDS011;53801;55.786;49.142;2023-04-24T19:25:48;6.57;;;2.30;;
66893;SDS011;53801;55.786;49.142;2023-04-24T19:28:14;7.88;;;3.00;;
66893;SDS011;53801;55.786;49.142;2023-04-24T19:30:42;9.87;;;2.97;;
66893;SDS011;53801;55.786;49.142;2023-04-24T19:33:07;7.38;;;2.63;;
66893;SDS011;53801;55.786;49.142;2023-04-24T19:35:33;7.50;;;2.40;;
66893;SDS011;53801;55.786;49.142;2023-04-24T19:37:59;5.97;;;2.00;;
66893;SDS011;53801;55.786;49.142;2023-04-24T19:46:09;7.13;;;2.10;;
66893;SDS011;53801;55.786;49.142;2023-04-24T19:48:35;5.40;;;2.03;;
66893;SDS011;53801;55.786;49.142;2023-04-24T19:51:01;11.77;;;2.13;;
66893;SDS011;53801;55.786;49.142;2023-04-24T19:56:15;5.85;;;2.10;;
66893;SDS011;53801;55.786;49.142;2023-04-24T19:58:45;5.10;;;1.83;;
66893;SDS011;53801;55.786;49.142;2023-04-24T20:01:10;6.93;;;2.50;;
66893;SDS011;53801;55.786;49.142;2023-04-24T20:03:36;5.60;;;2.00;;
66893;SDS011;53801;55.786;49.142;2023-04-24T20:14:04;6.43;;;2.17;;
66893;SDS011;53801;55.786;49.142;2023-04-24T20:16:32;7.25;;;1.88;;
66893;SDS011;53801;55.786;49.142;2023-04-24T20:18:59;7.87;;;1.93;;
66893;SDS011;53801;55.786;49.142;2023-04-24T20:21:25;5.40;;;1.70;;
66893;SDS011;53801;55.786;49.142;2023-04-24T20:24:00;6.43;;;2.00;;
66893;SDS011;53801;55.786;49.142;2023-04-24T20:26:25;8.43;;;2.20;;
66893;SDS011;53801;55.786;49.142;2023-04-24T20:28:51;6.70;;;1.98;;
66893;SDS011;53801;55.786;49.142;2023-04-24T20:31:16;6.90;;;1.90;;
66893;SDS011;53801;55.786;49.142;2023-04-24T20:33:43;8.18;;;2.55;;
66893;SDS011;53801;55.786;49.142;2023-04-24T20:36:09;8.53;;;2.43;;
66893;SDS011;53801;55.786;49.142;2023-04-24T20:41:47;5.80;;;2.47;;
66893;SDS011;53801;55.786;49.142;2023-04-24T20:44:21;5.13;;;2.40;;
66893;SDS011;53801;55.786;49.142;2023-04-24T20:46:58;5.07;;;2.63;;
66893;SDS011;53801;55.786;49.142;2023-04-24T20:49:23;5.45;;;2.30;;
66893;SDS011;53801;55.786;49.142;2023-04-24T20:54:20;7.73;;;2.27;;
66893;SDS011;53801;55.786;49.142;2023-04-24T20:56:53;9.73;;;2.38;;
66893;SDS011;53801;55.786;49.142;2023-04-24T20:59:21;5.05;;;1.80;;
66893;SDS011;53801;55.786;49.142;2023-04-24T21:01:52;5.63;;;2.40;;
66893;SDS011;53801;55.786;49.142;2023-04-24T21:04:18;5.40;;;2.10;;
66893;SDS011;53801;55.786;49.142;2023-04-24T21:06:45;7.77;;;2.23;;
66893;SDS011;53801;55.786;49.142;2023-04-24T21:09:15;8.80;;;2.15;;
66893;SDS011;53801;55.786;49.142;2023-04-24T21:17:05;5.30;;;2.00;;
66893;SDS011;53801;55.786;49.142;2023-04-24T21:19:31;6.43;;;2.00;;
66893;SDS011;53801;55.786;49.142;2023-04-24T21:21:56;6.73;;;2.10;;
66893;SDS011;53801;55.786;49.142;2023-04-24T21:24:22;4.80;;;2.10;;
66893;SDS011;53801;55.786;49.142;2023-04-24T21:26:47;10.82;;;2.15;;
66893;SDS011;53801;55.786;49.142;2023-04-24T21:29:13;5.43;;;2.00;;
66893;SDS011;53801;55.786;49.142;2023-04-24T21:31:50;5.70;;;2.35;;
66893;SDS011;53801;55.786;49.142;2023-04-24T21:34:19;5.85;;;2.78;;
66893;SDS011;53801;55.786;49.142;2023-04-24T21:36:44;7.80;;;2.30;;
66893;SDS011;53801;55.786;49.142;2023-04-24T21:39:12;8.43;;;2.17;;
66893;SDS011;53801;55.786;49.142;2023-04-24T21:41:40;4.47;;;1.80;;
66893;SDS011;53801;55.786;49.142;2023-04-24T21:44:05;6.75;;;1.83;;
66893;SDS011;53801;55.786;49.142;2023-04-24T21:46:37;7.15;;;2.17;;
66893;SDS011;53801;55.786;49.142;2023-04-24T21:54:34;5.22;;;2.10;;
66893;SDS011;53801;55.786;49.142;2023-04-24T21:57:02;7.63;;;3.43;;
66893;SDS011;53801;55.786;49.142;2023-04-24T21:59:28;6.13;;;2.00;;
66893;SDS011;53801;55.786;49.142;2023-04-24T22:01:53;5.82;;;2.13;;
66893;SDS011;53801;55.786;49.142;2023-04-24T22:04:21;9.07;;;2.30;;
66893;SDS011;53801;55.786;49.142;2023-04-24T22:06:47;8.43;;;2.67;;
66893;SDS011;53801;55.786;49.142;2023-04-24T22:09:12;8.50;;;2.50;;
66893;SDS011;53801;55.786;49.142;2023-04-24T22:11:38;9.00;;;2.37;;
66893;SDS011;53801;55.786;49.142;2023-04-24T22:14:05;10.52;;;2.40;;
66893;SDS011;53801;55.786;49.142;2023-04-24T22:16:31;9.98;;;2.60;;
66893;SDS011;53801;55.786;49.142;2023-04-24T22:18:58;8.80;;;2.58;;
66893;SDS011;53801;55.786;49.142;2023-04-24T22:21:23;11.60;;;3.17;;
66893;SDS011;53801;55.786;49.142;2023-04-24T22:23:49;7.17;;;2.47;;
66893;SDS011;53801;55.786;49.142;2023-04-24T22:26:15;8.30;;;3.10;;
66893;SDS011;53801;55.786;49.142;2023-04-24T22:28:40;7.07;;;2.00;;
66893;SDS011;53801;55.786;49.142;2023-04-24T22:31:05;12.00;;;2.63;;
66893;SDS011;53801;55.786;49.142;2023-04-24T22:33:31;7.27;;;2.60;;
66893;SDS011;53801;55.786;49.142;2023-04-24T22:35:57;4.85;;;2.33;;
66893;SDS011;53801;55.786;49.142;2023-04-24T22:38:22;6.57;;;2.40;;
66893;SDS011;53801;55.786;49.142;2023-04-24T22:40:47;5.50;;;2.17;;
66893;SDS011;53801;55.786;49.142;2023-04-24T22:43:13;6.13;;;2.35;;
66893;SDS011;53801;55.786;49.142;2023-04-24T22:45:38;8.70;;;3.17;;
66893;SDS011;53801;55.786;49.142;2023-04-24T22:48:04;10.47;;;1.90;;
66893;SDS011;53801;55.786;49.142;2023-04-24T22:50:31;7.53;;;1.90;;
66893;SDS011;53801;55.786;49.142;2023-04-24T22:52:56;8.10;;;2.30;;
66893;SDS011;53801;55.786;49.142;2023-04-24T22:55:22;7.77;;;2.20;;
66893;SDS011;53801;55.786;49.142;2023-04-24T22:57:47;10.00;;;2.42;;
66893;SDS011;53801;55.786;49.142;2023-04-24T23:00:13;12.55;;;2.97;;
66893;SDS011;53801;55.786;49.142;2023-04-24T23:02:40;6.22;;;2.28;;
66893;SDS011;53801;55.786;49.142;2023-04-24T23:05:06;6.78;;;2.20;;
66893;SDS011;53801;55.786;49.142;2023-04-24T23:07:31;7.57;;;2.03;;
66893;SDS011;53801;55.786;49.142;2023-04-24T23:09:57;5.88;;;2.10;;
66893;SDS011;53801;55.786;49.142;2023-04-24T23:12:22;7.00;;;2.13;;
66893;SDS011;53801;55.786;49.142;2023-04-24T23:19:40;8.23;;;2.35;;
66893;SDS011;53801;55.786;49.142;2023-04-24T23:22:06;6.00;;;2.50;;
66893;SDS011;53801;55.786;49.142;2023-04-24T23:24:31;8.43;;;2.47;;
66893;SDS011;53801;55.786;49.142;2023-04-24T23:26:57;5.45;;;2.33;;
66893;SDS011;53801;55.786;49.142;2023-04-24T23:29:22;7.70;;;2.20;;
66893;SDS011;53801;55.786;49.142;2023-04-24T23:31:50;11.45;;;2.63;;
66893;SDS011;53801;55.786;49.142;2023-04-24T23:34:15;7.73;;;2.60;;
66893;SDS011;53801;55.786;49.142;2023-04-24T23:36:43;11.02;;;2.90;;
66893;SDS011;53801;55.786;49.142;2023-04-24T23:39:08;13.23;;;2.87;;
66893;SDS011;53801;55.786;49.142;2023-04-24T23:41:34;9.90;;;3.53;;
66893;SDS011;53801;55.786;49.142;2023-04-24T23:43:59;6.72;;;3.17;;
66893;SDS011;53801;55.786;49.142;2023-04-24T23:46:25;12.20;;;3.33;;